Lules, Argentina
Current Conditions -  °F | °C
As of 3:00 AM on Saturday 01 Nov 2014 (Local Time) from SANT Reporting Station
Moderate Rain Moderate Rain  
Wind Chill: 64°   Ceiling: 300
Heat Index: 64°   Visibility: 1.8mi
Dew Point: 63°   Wind: 7mph
Humidity: 94%   Direction: 180°S
Pressure: 30"   Gusts: NA
Location:  26.93°S, 65.35°W
Report Text: SANT 010600Z 18006KT 3000 RA BKN003 BKN009BKN030 18/17 Q1016
Loading
Personal Weather Stations






























Interactive Weather Map New forecast layout! Learn more

10-Day Weather Forecast

Advertisements
Track Severe Weather on mobile